sensor_id;sensor_type;location;lat;lon;timestamp;P1;durP1;ratioP1;P2;durP2;ratioP2
77978;SDS011;67169;50.268;8.694;2023-05-07T00:01:26;1.63;;;1.00;;
77978;SDS011;67169;50.268;8.694;2023-05-07T00:03:54;2.28;;;0.93;;
77978;SDS011;67169;50.268;8.694;2023-05-07T00:06:21;2.47;;;1.20;;
77978;SDS011;67169;50.268;8.694;2023-05-07T00:08:47;1.85;;;0.95;;
77978;SDS011;67169;50.268;8.694;2023-05-07T00:11:14;1.20;;;0.98;;
77978;SDS011;67169;50.268;8.694;2023-05-07T00:13:41;1.42;;;1.10;;
77978;SDS011;67169;50.268;8.694;2023-05-07T00:16:07;2.17;;;1.00;;
77978;SDS011;67169;50.268;8.694;2023-05-07T00:18:34;1.20;;;1.10;;
77978;SDS011;67169;50.268;8.694;2023-05-07T00:21:02;1.25;;;0.95;;
77978;SDS011;67169;50.268;8.694;2023-05-07T00:23:28;1.63;;;0.90;;
77978;SDS011;67169;50.268;8.694;2023-05-07T00:25:55;1.17;;;0.90;;
77978;SDS011;67169;50.268;8.694;2023-05-07T00:28:22;2.58;;;1.38;;
77978;SDS011;67169;50.268;8.694;2023-05-07T00:30:48;1.30;;;1.13;;
77978;SDS011;67169;50.268;8.694;2023-05-07T00:33:15;3.25;;;1.20;;
77978;SDS011;67169;50.268;8.694;2023-05-07T00:35:42;1.88;;;1.00;;
77978;SDS011;67169;50.268;8.694;2023-05-07T00:38:10;4.40;;;1.02;;
77978;SDS011;67169;50.268;8.694;2023-05-07T00:40:36;2.15;;;1.08;;
77978;SDS011;67169;50.268;8.694;2023-05-07T00:43:03;2.85;;;1.00;;
77978;SDS011;67169;50.268;8.694;2023-05-07T00:45:29;3.95;;;1.48;;
77978;SDS011;67169;50.268;8.694;2023-05-07T00:47:57;2.88;;;1.02;;
77978;SDS011;67169;50.268;8.694;2023-05-07T00:50:25;1.02;;;0.93;;
77978;SDS011;67169;50.268;8.694;2023-05-07T00:52:52;2.05;;;1.30;;
77978;SDS011;67169;50.268;8.694;2023-05-07T00:55:21;1.75;;;0.93;;
77978;SDS011;67169;50.268;8.694;2023-05-07T00:57:48;1.75;;;1.00;;
77978;SDS011;67169;50.268;8.694;2023-05-07T01:02:43;0.80;;;0.80;;
77978;SDS011;67169;50.268;8.694;2023-05-07T01:05:10;2.33;;;1.10;;
77978;SDS011;67169;50.268;8.694;2023-05-07T01:07:39;1.35;;;1.25;;
77978;SDS011;67169;50.268;8.694;2023-05-07T01:10:07;1.85;;;1.27;;
77978;SDS011;67169;50.268;8.694;2023-05-07T01:12:37;1.48;;;1.30;;
77978;SDS011;67169;50.268;8.694;2023-05-07T01:15:05;1.85;;;1.10;;
77978;SDS011;67169;50.268;8.694;2023-05-07T01:17:34;2.08;;;1.30;;
77978;SDS011;67169;50.268;8.694;2023-05-07T01:20:01;1.58;;;1.20;;
77978;SDS011;67169;50.268;8.694;2023-05-07T01:22:31;2.70;;;1.20;;
77978;SDS011;67169;50.268;8.694;2023-05-07T01:24:58;2.42;;;1.30;;
77978;SDS011;67169;50.268;8.694;2023-05-07T01:27:26;1.52;;;1.10;;
77978;SDS011;67169;50.268;8.694;2023-05-07T01:29:53;1.92;;;1.30;;
77978;SDS011;67169;50.268;8.694;2023-05-07T01:32:21;1.83;;;1.10;;
77978;SDS011;67169;50.268;8.694;2023-05-07T01:34:53;2.05;;;0.95;;
77978;SDS011;67169;50.268;8.694;2023-05-07T01:37:21;3.10;;;1.83;;
77978;SDS011;67169;50.268;8.694;2023-05-07T01:39:50;2.03;;;1.23;;
77978;SDS011;67169;50.268;8.694;2023-05-07T01:42:18;1.45;;;1.13;;
77978;SDS011;67169;50.268;8.694;2023-05-07T01:44:44;1.75;;;1.00;;
77978;SDS011;67169;50.268;8.694;2023-05-07T01:47:11;3.35;;;1.30;;
77978;SDS011;67169;50.268;8.694;2023-05-07T01:49:39;1.67;;;1.10;;
77978;SDS011;67169;50.268;8.694;2023-05-07T01:52:08;2.80;;;1.23;;
77978;SDS011;67169;50.268;8.694;2023-05-07T01:54:36;2.13;;;1.10;;
77978;SDS011;67169;50.268;8.694;2023-05-07T01:57:04;2.25;;;1.30;;
77978;SDS011;67169;50.268;8.694;2023-05-07T01:59:30;1.90;;;0.95;;
77978;SDS011;67169;50.268;8.694;2023-05-07T02:01:57;2.13;;;1.23;;
77978;SDS011;67169;50.268;8.694;2023-05-07T02:04:23;2.75;;;1.10;;
77978;SDS011;67169;50.268;8.694;2023-05-07T02:06:50;2.65;;;1.10;;
77978;SDS011;67169;50.268;8.694;2023-05-07T02:09:17;1.38;;;0.80;;
77978;SDS011;67169;50.268;8.694;2023-05-07T02:11:44;2.90;;;1.05;;
77978;SDS011;67169;50.268;8.694;2023-05-07T02:14:12;1.80;;;1.20;;
77978;SDS011;67169;50.268;8.694;2023-05-07T02:16:39;3.05;;;1.23;;
77978;SDS011;67169;50.268;8.694;2023-05-07T02:19:05;2.50;;;1.08;;
77978;SDS011;67169;50.268;8.694;2023-05-07T02:21:32;1.30;;;1.10;;
77978;SDS011;67169;50.268;8.694;2023-05-07T02:23:58;1.20;;;1.05;;
77978;SDS011;67169;50.268;8.694;2023-05-07T02:26:25;1.25;;;1.15;;
77978;SDS011;67169;50.268;8.694;2023-05-07T02:28:51;2.10;;;1.05;;
77978;SDS011;67169;50.268;8.694;2023-05-07T02:31:20;2.30;;;1.13;;
77978;SDS011;67169;50.268;8.694;2023-05-07T02:33:46;1.90;;;1.08;;
77978;SDS011;67169;50.268;8.694;2023-05-07T02:36:13;1.48;;;1.00;;
77978;SDS011;67169;50.268;8.694;2023-05-07T02:38:39;2.25;;;1.27;;
77978;SDS011;67169;50.268;8.694;2023-05-07T02:41:06;1.45;;;1.30;;
77978;SDS011;67169;50.268;8.694;2023-05-07T02:43:33;2.83;;;1.20;;
77978;SDS011;67169;50.268;8.694;2023-05-07T02:46:00;2.90;;;1.23;;
77978;SDS011;67169;50.268;8.694;2023-05-07T02:48:29;1.52;;;1.10;;
77978;SDS011;67169;50.268;8.694;2023-05-07T02:50:55;1.90;;;1.08;;
77978;SDS011;67169;50.268;8.694;2023-05-07T02:53:22;1.45;;;1.05;;
77978;SDS011;67169;50.268;8.694;2023-05-07T02:55:51;1.83;;;1.30;;
77978;SDS011;67169;50.268;8.694;2023-05-07T02:58:17;1.63;;;1.13;;
77978;SDS011;67169;50.268;8.694;2023-05-07T03:00:44;3.45;;;1.25;;
77978;SDS011;67169;50.268;8.694;2023-05-07T03:03:10;1.55;;;1.02;;
77978;SDS011;67169;50.268;8.694;2023-05-07T03:05:39;1.48;;;1.17;;
77978;SDS011;67169;50.268;8.694;2023-05-07T03:08:05;1.67;;;1.00;;
77978;SDS011;67169;50.268;8.694;2023-05-07T03:10:32;1.83;;;1.10;;
77978;SDS011;67169;50.268;8.694;2023-05-07T03:12:58;2.65;;;1.30;;
77978;SDS011;67169;50.268;8.694;2023-05-07T03:15:25;1.98;;;1.15;;
77978;SDS011;67169;50.268;8.694;2023-05-07T03:17:51;1.20;;;1.10;;
77978;SDS011;67169;50.268;8.694;2023-05-07T03:20:18;1.60;;;1.00;;
77978;SDS011;67169;50.268;8.694;2023-05-07T03:22:46;2.08;;;1.30;;
77978;SDS011;67169;50.268;8.694;2023-05-07T03:25:13;1.83;;;1.48;;
77978;SDS011;67169;50.268;8.694;2023-05-07T03:27:40;1.98;;;1.30;;
77978;SDS011;67169;50.268;8.694;2023-05-07T03:30:07;1.10;;;1.05;;
77978;SDS011;67169;50.268;8.694;2023-05-07T03:32:34;1.83;;;1.30;;
77978;SDS011;67169;50.268;8.694;2023-05-07T03:35:01;3.90;;;1.30;;
77978;SDS011;67169;50.268;8.694;2023-05-07T03:37:28;3.22;;;1.33;;
77978;SDS011;67169;50.268;8.694;2023-05-07T03:39:56;2.53;;;1.15;;
77978;SDS011;67169;50.268;8.694;2023-05-07T03:42:23;1.73;;;1.20;;
77978;SDS011;67169;50.268;8.694;2023-05-07T03:44:49;1.88;;;1.38;;
77978;SDS011;67169;50.268;8.694;2023-05-07T03:47:16;2.00;;;1.15;;
77978;SDS011;67169;50.268;8.694;2023-05-07T03:49:43;2.47;;;1.40;;
77978;SDS011;67169;50.268;8.694;2023-05-07T03:52:09;2.25;;;1.27;;
77978;SDS011;67169;50.268;8.694;2023-05-07T03:54:36;1.77;;;1.17;;
77978;SDS011;67169;50.268;8.694;2023-05-07T03:57:04;2.45;;;1.20;;
77978;SDS011;67169;50.268;8.694;2023-05-07T03:59:31;2.75;;;1.50;;
77978;SDS011;67169;50.268;8.694;2023-05-07T04:01:57;2.78;;;1.33;;
77978;SDS011;67169;50.268;8.694;2023-05-07T04:04:24;2.00;;;1.30;;
77978;SDS011;67169;50.268;8.694;2023-05-07T04:06:51;2.13;;;1.50;;
77978;SDS011;67169;50.268;8.694;2023-05-07T04:09:18;2.05;;;1.48;;
77978;SDS011;67169;50.268;8.694;2023-05-07T04:11:45;1.70;;;1.30;;
77978;SDS011;67169;50.268;8.694;2023-05-07T04:14:12;1.73;;;1.45;;
77978;SDS011;67169;50.268;8.694;2023-05-07T04:16:39;1.80;;;1.13;;
77978;SDS011;67169;50.268;8.694;2023-05-07T04:19:05;2.17;;;1.48;;
77978;SDS011;67169;50.268;8.694;2023-05-07T04:21:32;2.58;;;1.90;;
77978;SDS011;67169;50.268;8.694;2023-05-07T04:23:59;2.65;;;1.42;;
77978;SDS011;67169;50.268;8.694;2023-05-07T04:26:25;2.13;;;1.80;;
77978;SDS011;67169;50.268;8.694;2023-05-07T04:28:52;1.92;;;1.60;;
77978;SDS011;67169;50.268;8.694;2023-05-07T04:31:20;1.25;;;1.15;;
77978;SDS011;67169;50.268;8.694;2023-05-07T04:33:47;2.88;;;1.40;;
77978;SDS011;67169;50.268;8.694;2023-05-07T04:36:13;3.15;;;1.65;;
77978;SDS011;67169;50.268;8.694;2023-05-07T04:38:40;1.95;;;1.45;;
77978;SDS011;67169;50.268;8.694;2023-05-07T04:41:08;2.22;;;1.50;;
77978;SDS011;67169;50.268;8.694;2023-05-07T04:43:35;1.73;;;1.45;;
77978;SDS011;67169;50.268;8.694;2023-05-07T04:46:01;1.50;;;1.20;;
77978;SDS011;67169;50.268;8.694;2023-05-07T04:48:29;1.50;;;1.20;;
77978;SDS011;67169;50.268;8.694;2023-05-07T04:50:56;2.10;;;1.90;;
77978;SDS011;67169;50.268;8.694;2023-05-07T04:53:22;2.72;;;1.67;;
77978;SDS011;67169;50.268;8.694;2023-05-07T04:55:54;1.73;;;1.50;;
77978;SDS011;67169;50.268;8.694;2023-05-07T04:58:21;2.05;;;1.25;;
77978;SDS011;67169;50.268;8.694;2023-05-07T05:00:47;3.17;;;2.10;;
77978;SDS011;67169;50.268;8.694;2023-05-07T05:03:14;1.70;;;1.40;;
77978;SDS011;67169;50.268;8.694;2023-05-07T05:05:43;1.63;;;1.52;;
77978;SDS011;67169;50.268;8.694;2023-05-07T05:08:09;2.83;;;1.60;;
77978;SDS011;67169;50.268;8.694;2023-05-07T05:10:36;1.90;;;1.58;;
77978;SDS011;67169;50.268;8.694;2023-05-07T05:13:02;1.77;;;1.63;;
77978;SDS011;67169;50.268;8.694;2023-05-07T05:15:29;2.40;;;1.60;;
77978;SDS011;67169;50.268;8.694;2023-05-07T05:17:56;2.83;;;1.50;;
77978;SDS011;67169;50.268;8.694;2023-05-07T05:20:22;3.08;;;1.45;;
77978;SDS011;67169;50.268;8.694;2023-05-07T05:22:50;1.65;;;1.38;;
77978;SDS011;67169;50.268;8.694;2023-05-07T05:25:17;6.72;;;1.63;;
77978;SDS011;67169;50.268;8.694;2023-05-07T05:27:43;4.10;;;1.77;;
77978;SDS011;67169;50.268;8.694;2023-05-07T05:30:10;1.92;;;1.60;;
77978;SDS011;67169;50.268;8.694;2023-05-07T05:32:37;1.80;;;1.67;;
77978;SDS011;67169;50.268;8.694;2023-05-07T05:35:04;2.45;;;1.50;;
77978;SDS011;67169;50.268;8.694;2023-05-07T05:37:31;7.65;;;1.67;;
77978;SDS011;67169;50.268;8.694;2023-05-07T05:39:59;1.80;;;1.50;;
77978;SDS011;67169;50.268;8.694;2023-05-07T05:42:26;3.53;;;1.70;;
77978;SDS011;67169;50.268;8.694;2023-05-07T05:44:52;3.33;;;1.50;;
77978;SDS011;67169;50.268;8.694;2023-05-07T05:47:19;1.75;;;1.45;;
77978;SDS011;67169;50.268;8.694;2023-05-07T05:49:45;1.98;;;1.52;;
77978;SDS011;67169;50.268;8.694;2023-05-07T05:52:12;1.75;;;1.50;;
77978;SDS011;67169;50.268;8.694;2023-05-07T05:54:39;2.70;;;1.90;;
77978;SDS011;67169;50.268;8.694;2023-05-07T05:57:06;2.72;;;1.88;;
77978;SDS011;67169;50.268;8.694;2023-05-07T05:59:33;1.77;;;1.60;;
77978;SDS011;67169;50.268;8.694;2023-05-07T06:02:00;1.88;;;1.65;;
77978;SDS011;67169;50.268;8.694;2023-05-07T06:04:26;2.42;;;1.67;;
77978;SDS011;67169;50.268;8.694;2023-05-07T06:06:53;9.55;;;2.08;;
77978;SDS011;67169;50.268;8.694;2023-05-07T06:09:19;3.15;;;2.20;;
77978;SDS011;67169;50.268;8.694;2023-05-07T06:11:46;2.40;;;1.70;;
77978;SDS011;67169;50.268;8.694;2023-05-07T06:14:14;2.22;;;1.80;;
77978;SDS011;67169;50.268;8.694;2023-05-07T06:16:40;4.30;;;1.70;;
77978;SDS011;67169;50.268;8.694;2023-05-07T06:19:07;3.33;;;1.75;;
77978;SDS011;67169;50.268;8.694;2023-05-07T06:21:34;2.30;;;1.70;;
77978;SDS011;67169;50.268;8.694;2023-05-07T06:24:00;2.08;;;1.58;;
77978;SDS011;67169;50.268;8.694;2023-05-07T06:26:27;2.67;;;2.03;;
77978;SDS011;67169;50.268;8.694;2023-05-07T06:28:53;2.20;;;1.70;;
77978;SDS011;67169;50.268;8.694;2023-05-07T06:31:21;1.83;;;1.60;;
77978;SDS011;67169;50.268;8.694;2023-05-07T06:33:48;2.42;;;1.75;;
77978;SDS011;67169;50.268;8.694;2023-05-07T06:36:15;1.90;;;1.50;;
77978;SDS011;67169;50.268;8.694;2023-05-07T06:38:41;3.00;;;1.60;;
77978;SDS011;67169;50.268;8.694;2023-05-07T06:41:08;2.00;;;1.80;;
77978;SDS011;67169;50.268;8.694;2023-05-07T06:43:35;4.10;;;1.80;;
77978;SDS011;67169;50.268;8.694;2023-05-07T06:46:01;2.17;;;1.80;;
77978;SDS011;67169;50.268;8.694;2023-05-07T06:48:29;3.22;;;2.00;;
77978;SDS011;67169;50.268;8.694;2023-05-07T06:50:56;3.20;;;2.38;;
77978;SDS011;67169;50.268;8.694;2023-05-07T06:53:23;2.90;;;1.80;;
77978;SDS011;67169;50.268;8.694;2023-05-07T06:55:50;3.80;;;2.60;;
77978;SDS011;67169;50.268;8.694;2023-05-07T06:58:17;2.55;;;2.15;;
77978;SDS011;67169;50.268;8.694;2023-05-07T07:00:44;3.08;;;2.28;;
77978;SDS011;67169;50.268;8.694;2023-05-07T07:03:10;3.00;;;2.20;;
77978;SDS011;67169;50.268;8.694;2023-05-07T07:05:39;4.88;;;2.28;;
77978;SDS011;67169;50.268;8.694;2023-05-07T07:08:06;2.85;;;2.33;;
77978;SDS011;67169;50.268;8.694;2023-05-07T07:10:33;2.58;;;2.03;;
77978;SDS011;67169;50.268;8.694;2023-05-07T07:13:00;3.08;;;2.35;;
77978;SDS011;67169;50.268;8.694;2023-05-07T07:15:26;3.00;;;2.30;;
77978;SDS011;67169;50.268;8.694;2023-05-07T07:17:53;2.47;;;2.28;;
77978;SDS011;67169;50.268;8.694;2023-05-07T07:20:19;2.88;;;2.58;;
77978;SDS011;67169;50.268;8.694;2023-05-07T07:22:47;3.92;;;2.50;;
77978;SDS011;67169;50.268;8.694;2023-05-07T07:25:14;3.58;;;2.97;;
77978;SDS011;67169;50.268;8.694;2023-05-07T07:27:41;2.60;;;2.33;;
77978;SDS011;67169;50.268;8.694;2023-05-07T07:30:07;3.28;;;2.25;;
77978;SDS011;67169;50.268;8.694;2023-05-07T07:32:34;3.17;;;2.35;;
77978;SDS011;67169;50.268;8.694;2023-05-07T07:35:01;3.42;;;2.50;;
77978;SDS011;67169;50.268;8.694;2023-05-07T07:37:27;3.03;;;2.72;;
77978;SDS011;67169;50.268;8.694;2023-05-07T07:39:56;3.85;;;2.63;;
77978;SDS011;67169;50.268;8.694;2023-05-07T07:42:22;4.05;;;2.25;;
77978;SDS011;67169;50.268;8.694;2023-05-07T07:44:49;2.83;;;2.00;;
77978;SDS011;67169;50.268;8.694;2023-05-07T07:47:16;3.78;;;2.45;;
77978;SDS011;67169;50.268;8.694;2023-05-07T07:49:42;4.18;;;2.75;;
77978;SDS011;67169;50.268;8.694;2023-05-07T07:52:09;5.40;;;2.90;;
77978;SDS011;67169;50.268;8.694;2023-05-07T07:54:35;4.28;;;2.88;;
77978;SDS011;67169;50.268;8.694;2023-05-07T07:57:04;3.53;;;2.70;;
77978;SDS011;67169;50.268;8.694;2023-05-07T07:59:30;4.13;;;2.83;;
77978;SDS011;67169;50.268;8.694;2023-05-07T08:01:57;3.60;;;3.00;;
77978;SDS011;67169;50.268;8.694;2023-05-07T08:04:24;4.05;;;2.92;;
77978;SDS011;67169;50.268;8.694;2023-05-07T08:06:50;3.10;;;2.70;;
77978;SDS011;67169;50.268;8.694;2023-05-07T08:09:17;4.55;;;3.15;;
77978;SDS011;67169;50.268;8.694;2023-05-07T08:11:43;4.00;;;2.78;;
77978;SDS011;67169;50.268;8.694;2023-05-07T08:14:11;3.75;;;2.72;;
77978;SDS011;67169;50.268;8.694;2023-05-07T08:16:38;3.97;;;3.10;;
77978;SDS011;67169;50.268;8.694;2023-05-07T08:19:04;3.97;;;2.83;;
77978;SDS011;67169;50.268;8.694;2023-05-07T08:21:31;4.90;;;3.45;;
77978;SDS011;67169;50.268;8.694;2023-05-07T08:23:57;3.50;;;3.10;;
77978;SDS011;67169;50.268;8.694;2023-05-07T08:26:24;3.13;;;2.83;;
77978;SDS011;67169;50.268;8.694;2023-05-07T08:28:51;4.47;;;2.90;;
77978;SDS011;67169;50.268;8.694;2023-05-07T08:31:19;3.70;;;2.67;;
77978;SDS011;67169;50.268;8.694;2023-05-07T08:33:45;3.33;;;2.90;;
77978;SDS011;67169;50.268;8.694;2023-05-07T08:36:12;3.00;;;2.75;;
77978;SDS011;67169;50.268;8.694;2023-05-07T08:38:38;2.72;;;2.40;;
77978;SDS011;67169;50.268;8.694;2023-05-07T08:41:09;3.13;;;2.83;;
77978;SDS011;67169;50.268;8.694;2023-05-07T08:43:36;3.50;;;3.20;;
77978;SDS011;67169;50.268;8.694;2023-05-07T08:46:06;3.80;;;2.63;;
77978;SDS011;67169;50.268;8.694;2023-05-07T08:48:37;4.45;;;2.97;;
77978;SDS011;67169;50.268;8.694;2023-05-07T08:51:03;2.97;;;2.70;;
77978;SDS011;67169;50.268;8.694;2023-05-07T08:55:57;3.00;;;2.35;;
77978;SDS011;67169;50.268;8.694;2023-05-07T08:58:25;3.00;;;2.67;;
77978;SDS011;67169;50.268;8.694;2023-05-07T09:00:51;3.28;;;2.80;;
77978;SDS011;67169;50.268;8.694;2023-05-07T09:03:20;6.15;;;2.90;;
77978;SDS011;67169;50.268;8.694;2023-05-07T09:05:48;3.33;;;2.60;;
77978;SDS011;67169;50.268;8.694;2023-05-07T09:08:14;3.42;;;2.90;;
77978;SDS011;67169;50.268;8.694;2023-05-07T09:10:41;3.72;;;2.95;;
77978;SDS011;67169;50.268;8.694;2023-05-07T09:13:07;3.33;;;2.92;;
77978;SDS011;67169;50.268;8.694;2023-05-07T09:15:35;3.60;;;2.60;;
77978;SDS011;67169;50.268;8.694;2023-05-07T09:18:02;2.70;;;2.50;;
77978;SDS011;67169;50.268;8.694;2023-05-07T09:20:30;3.15;;;2.85;;
77978;SDS011;67169;50.268;8.694;2023-05-07T09:22:58;3.05;;;2.78;;
77978;SDS011;67169;50.268;8.694;2023-05-07T09:25:28;7.53;;;3.10;;
77978;SDS011;67169;50.268;8.694;2023-05-07T09:27:56;3.88;;;2.85;;
77978;SDS011;67169;50.268;8.694;2023-05-07T09:30:22;3.70;;;2.55;;
77978;SDS011;67169;50.268;8.694;2023-05-07T09:32:49;3.40;;;3.10;;
77978;SDS011;67169;50.268;8.694;2023-05-07T09:35:16;3.75;;;3.38;;
77978;SDS011;67169;50.268;8.694;2023-05-07T09:37:43;4.72;;;3.25;;
77978;SDS011;67169;50.268;8.694;2023-05-07T09:40:14;6.72;;;2.95;;
77978;SDS011;67169;50.268;8.694;2023-05-07T09:42:46;4.22;;;2.95;;
77978;SDS011;67169;50.268;8.694;2023-05-07T09:45:14;3.03;;;2.55;;
77978;SDS011;67169;50.268;8.694;2023-05-07T09:47:41;5.32;;;3.10;;
77978;SDS011;67169;50.268;8.694;2023-05-07T09:50:10;3.40;;;3.10;;
77978;SDS011;67169;50.268;8.694;2023-05-07T09:52:41;3.80;;;2.78;;
77978;SDS011;67169;50.268;8.694;2023-05-07T09:55:09;5.85;;;3.35;;
77978;SDS011;67169;50.268;8.694;2023-05-07T09:57:39;3.28;;;2.90;;
77978;SDS011;67169;50.268;8.694;2023-05-07T10:00:07;3.10;;;2.85;;
77978;SDS011;67169;50.268;8.694;2023-05-07T10:02:37;3.65;;;3.35;;
77978;SDS011;67169;50.268;8.694;2023-05-07T10:05:11;3.78;;;3.10;;
77978;SDS011;67169;50.268;8.694;2023-05-07T10:07:39;3.35;;;2.97;;
77978;SDS011;67169;50.268;8.694;2023-05-07T10:10:06;3.58;;;3.05;;
77978;SDS011;67169;50.268;8.694;2023-05-07T10:12:33;4.65;;;2.90;;
77978;SDS011;67169;50.268;8.694;2023-05-07T10:15:05;3.00;;;2.70;;
77978;SDS011;67169;50.268;8.694;2023-05-07T10:17:34;5.90;;;2.83;;
77978;SDS011;67169;50.268;8.694;2023-05-07T10:20:02;3.10;;;2.63;;
77978;SDS011;67169;50.268;8.694;2023-05-07T10:22:29;5.43;;;2.50;;
77978;SDS011;67169;50.268;8.694;2023-05-07T10:24:58;2.92;;;2.55;;
77978;SDS011;67169;50.268;8.694;2023-05-07T10:27:28;3.05;;;2.75;;
77978;SDS011;67169;50.268;8.694;2023-05-07T10:29:58;2.63;;;2.42;;
77978;SDS011;67169;50.268;8.694;2023-05-07T10:32:40;3.65;;;3.00;;
77978;SDS011;67169;50.268;8.694;2023-05-07T10:35:10;3.78;;;2.78;;
77978;SDS011;67169;50.268;8.694;2023-05-07T10:37:41;3.28;;;2.97;;
77978;SDS011;67169;50.268;8.694;2023-05-07T10:40:08;3.17;;;2.55;;
77978;SDS011;67169;50.268;8.694;2023-05-07T10:42:36;3.80;;;2.67;;
77978;SDS011;67169;50.268;8.694;2023-05-07T10:45:11;3.42;;;2.40;;
77978;SDS011;67169;50.268;8.694;2023-05-07T10:50:35;2.80;;;2.55;;
77978;SDS011;67169;50.268;8.694;2023-05-07T10:53:20;3.40;;;2.80;;
77978;SDS011;67169;50.268;8.694;2023-05-07T10:55:49;3.72;;;2.67;;
77978;SDS011;67169;50.268;8.694;2023-05-07T10:58:23;4.05;;;2.70;;
77978;SDS011;67169;50.268;8.694;2023-05-07T11:00:56;2.78;;;2.47;;
77978;SDS011;67169;50.268;8.694;2023-05-07T11:03:25;3.10;;;2.63;;
77978;SDS011;67169;50.268;8.694;2023-05-07T11:06:10;3.25;;;2.70;;
77978;SDS011;67169;50.268;8.694;2023-05-07T11:08:54;4.95;;;2.67;;
77978;SDS011;67169;50.268;8.694;2023-05-07T11:11:36;4.00;;;3.13;;
77978;SDS011;67169;50.268;8.694;2023-05-07T11:14:10;2.70;;;2.35;;
77978;SDS011;67169;50.268;8.694;2023-05-07T11:16:37;2.97;;;2.15;;
77978;SDS011;67169;50.268;8.694;2023-05-07T11:19:06;3.03;;;2.58;;
77978;SDS011;67169;50.268;8.694;2023-05-07T11:21:33;2.88;;;2.67;;
77978;SDS011;67169;50.268;8.694;2023-05-07T11:24:01;2.75;;;2.40;;
77978;SDS011;67169;50.268;8.694;2023-05-07T11:26:29;3.20;;;2.55;;
77978;SDS011;67169;50.268;8.694;2023-05-07T11:28:57;2.80;;;2.60;;
77978;SDS011;67169;50.268;8.694;2023-05-07T11:31:26;3.22;;;2.22;;
77978;SDS011;67169;50.268;8.694;2023-05-07T11:33:54;2.78;;;2.58;;
77978;SDS011;67169;50.268;8.694;2023-05-07T11:36:23;5.85;;;2.95;;
77978;SDS011;67169;50.268;8.694;2023-05-07T11:38:51;3.05;;;2.60;;
77978;SDS011;67169;50.268;8.694;2023-05-07T11:41:17;2.60;;;2.40;;
77978;SDS011;67169;50.268;8.694;2023-05-07T11:43:53;4.22;;;2.70;;
77978;SDS011;67169;50.268;8.694;2023-05-07T11:46:24;3.03;;;2.50;;
77978;SDS011;67169;50.268;8.694;2023-05-07T11:51:21;4.03;;;2.80;;
77978;SDS011;67169;50.268;8.694;2023-05-07T11:53:50;3.88;;;3.15;;
77978;SDS011;67169;50.268;8.694;2023-05-07T11:56:17;4.95;;;2.70;;
77978;SDS011;67169;50.268;8.694;2023-05-07T11:58:44;3.72;;;2.80;;
77978;SDS011;67169;50.268;8.694;2023-05-07T12:01:12;3.65;;;2.80;;
77978;SDS011;67169;50.268;8.694;2023-05-07T12:03:41;4.03;;;3.38;;
77978;SDS011;67169;50.268;8.694;2023-05-07T12:06:09;3.38;;;2.65;;
77978;SDS011;67169;50.268;8.694;2023-05-07T12:08:37;4.22;;;2.78;;
77978;SDS011;67169;50.268;8.694;2023-05-07T12:11:07;2.83;;;2.63;;
77978;SDS011;67169;50.268;8.694;2023-05-07T12:13:36;3.50;;;2.70;;
77978;SDS011;67169;50.268;8.694;2023-05-07T12:16:05;4.85;;;2.65;;
77978;SDS011;67169;50.268;8.694;2023-05-07T12:18:32;5.53;;;2.88;;
77978;SDS011;67169;50.268;8.694;2023-05-07T12:21:01;2.80;;;2.60;;
77978;SDS011;67169;50.268;8.694;2023-05-07T12:23:30;3.60;;;2.65;;
77978;SDS011;67169;50.268;8.694;2023-05-07T12:25:56;5.10;;;4.53;;
77978;SDS011;67169;50.268;8.694;2023-05-07T12:28:24;3.92;;;3.15;;
77978;SDS011;67169;50.268;8.694;2023-05-07T12:30:51;3.95;;;2.25;;
77978;SDS011;67169;50.268;8.694;2023-05-07T12:33:18;3.13;;;2.80;;
77978;SDS011;67169;50.268;8.694;2023-05-07T12:35:49;4.10;;;2.42;;
77978;SDS011;67169;50.268;8.694;2023-05-07T12:38:16;2.83;;;2.53;;
77978;SDS011;67169;50.268;8.694;2023-05-07T12:40:45;3.22;;;2.55;;
77978;SDS011;67169;50.268;8.694;2023-05-07T12:43:16;2.08;;;1.83;;
77978;SDS011;67169;50.268;8.694;2023-05-07T12:45:45;3.22;;;2.92;;
77978;SDS011;67169;50.268;8.694;2023-05-07T12:48:13;2.47;;;2.25;;
77978;SDS011;67169;50.268;8.694;2023-05-07T12:50:39;3.17;;;2.45;;
77978;SDS011;67169;50.268;8.694;2023-05-07T12:53:06;3.00;;;2.55;;
77978;SDS011;67169;50.268;8.694;2023-05-07T12:55:40;2.63;;;2.35;;
77978;SDS011;67169;50.268;8.694;2023-05-07T12:58:08;2.58;;;2.17;;
77978;SDS011;67169;50.268;8.694;2023-05-07T13:00:41;2.17;;;1.95;;
77978;SDS011;67169;50.268;8.694;2023-05-07T13:03:09;2.42;;;2.13;;
77978;SDS011;67169;50.268;8.694;2023-05-07T13:05:36;2.00;;;1.80;;
77978;SDS011;67169;50.268;8.694;2023-05-07T13:08:03;2.05;;;1.85;;
77978;SDS011;67169;50.268;8.694;2023-05-07T13:10:30;3.95;;;2.17;;
77978;SDS011;67169;50.268;8.694;2023-05-07T13:12:57;2.83;;;2.00;;
77978;SDS011;67169;50.268;8.694;2023-05-07T13:15:24;2.47;;;2.28;;
77978;SDS011;67169;50.268;8.694;2023-05-07T13:17:52;1.80;;;1.70;;
77978;SDS011;67169;50.268;8.694;2023-05-07T13:20:19;2.47;;;1.90;;
77978;SDS011;67169;50.268;8.694;2023-05-07T13:22:46;2.45;;;2.25;;
77978;SDS011;67169;50.268;8.694;2023-05-07T13:25:13;3.22;;;1.90;;
77978;SDS011;67169;50.268;8.694;2023-05-07T13:27:39;2.78;;;2.30;;
77978;SDS011;67169;50.268;8.694;2023-05-07T13:30:06;2.17;;;1.70;;
77978;SDS011;67169;50.268;8.694;2023-05-07T13:32:33;2.35;;;1.95;;
77978;SDS011;67169;50.268;8.694;2023-05-07T13:35:00;2.30;;;2.05;;
77978;SDS011;67169;50.268;8.694;2023-05-07T13:39:55;2.53;;;1.90;;
77978;SDS011;67169;50.268;8.694;2023-05-07T13:42:21;2.55;;;2.00;;
77978;SDS011;67169;50.268;8.694;2023-05-07T13:44:48;2.38;;;1.83;;
77978;SDS011;67169;50.268;8.694;2023-05-07T13:47:14;2.05;;;1.58;;
77978;SDS011;67169;50.268;8.694;2023-05-07T13:49:41;2.30;;;2.00;;
77978;SDS011;67169;50.268;8.694;2023-05-07T13:52:07;2.30;;;1.75;;
77978;SDS011;67169;50.268;8.694;2023-05-07T13:54:35;2.42;;;1.90;;
77978;SDS011;67169;50.268;8.694;2023-05-07T13:57:02;3.28;;;2.10;;
77978;SDS011;67169;50.268;8.694;2023-05-07T13:59:28;2.80;;;1.85;;
77978;SDS011;67169;50.268;8.694;2023-05-07T14:01:55;2.00;;;1.88;;
77978;SDS011;67169;50.268;8.694;2023-05-07T14:04:21;3.15;;;1.80;;
77978;SDS011;67169;50.268;8.694;2023-05-07T14:06:48;2.25;;;1.95;;
77978;SDS011;67169;50.268;8.694;2023-05-07T14:09:14;3.45;;;1.80;;
77978;SDS011;67169;50.268;8.694;2023-05-07T14:11:42;2.00;;;1.90;;
77978;SDS011;67169;50.268;8.694;2023-05-07T14:14:09;4.88;;;2.13;;
77978;SDS011;67169;50.268;8.694;2023-05-07T14:16:36;3.40;;;1.98;;
77978;SDS011;67169;50.268;8.694;2023-05-07T14:19:03;2.63;;;2.17;;
77978;SDS011;67169;50.268;8.694;2023-05-07T14:21:30;2.45;;;1.77;;
77978;SDS011;67169;50.268;8.694;2023-05-07T14:23:57;2.80;;;2.20;;
77978;SDS011;67169;50.268;8.694;2023-05-07T14:26:25;2.25;;;2.05;;
77978;SDS011;67169;50.268;8.694;2023-05-07T14:28:53;2.00;;;1.85;;
77978;SDS011;67169;50.268;8.694;2023-05-07T14:31:22;4.20;;;2.45;;
77978;SDS011;67169;50.268;8.694;2023-05-07T14:33:48;3.78;;;2.22;;
77978;SDS011;67169;50.268;8.694;2023-05-07T14:36:15;2.13;;;1.77;;
77978;SDS011;67169;50.268;8.694;2023-05-07T14:38:42;1.80;;;1.70;;
77978;SDS011;67169;50.268;8.694;2023-05-07T14:41:09;2.00;;;1.80;;
77978;SDS011;67169;50.268;8.694;2023-05-07T14:43:35;1.90;;;1.60;;
77978;SDS011;67169;50.268;8.694;2023-05-07T14:46:03;2.05;;;1.75;;
77978;SDS011;67169;50.268;8.694;2023-05-07T14:48:30;1.98;;;1.77;;
77978;SDS011;67169;50.268;8.694;2023-05-07T14:50:56;5.25;;;1.85;;
77978;SDS011;67169;50.268;8.694;2023-05-07T14:53:23;1.60;;;1.40;;
77978;SDS011;67169;50.268;8.694;2023-05-07T14:55:50;1.80;;;1.65;;
77978;SDS011;67169;50.268;8.694;2023-05-07T14:58:16;1.73;;;1.55;;
77978;SDS011;67169;50.268;8.694;2023-05-07T15:00:43;2.22;;;1.77;;
77978;SDS011;67169;50.268;8.694;2023-05-07T15:03:11;3.33;;;2.05;;